sensor_id;sensor_type;location;lat;lon;timestamp;temperature;humidity
15717;DHT22;7960;50.908;4.204;2023-04-24T00:01:05;9.40;99.90
15717;DHT22;7960;50.908;4.204;2023-04-24T00:03:33;9.40;99.90
15717;DHT22;7960;50.908;4.204;2023-04-24T00:06:00;9.40;99.90
15717;DHT22;7960;50.908;4.204;2023-04-24T00:08:28;9.40;99.90
15717;DHT22;7960;50.908;4.204;2023-04-24T00:10:56;9.40;99.90
15717;DHT22;7960;50.908;4.204;2023-04-24T00:13:23;9.40;99.90
15717;DHT22;7960;50.908;4.204;2023-04-24T00:15:50;9.40;99.90
15717;DHT22;7960;50.908;4.204;2023-04-24T00:18:17;9.40;99.90
15717;DHT22;7960;50.908;4.204;2023-04-24T00:20:44;9.40;99.90
15717;DHT22;7960;50.908;4.204;2023-04-24T00:23:12;9.40;99.90
15717;DHT22;7960;50.908;4.204;2023-04-24T00:25:39;9.30;99.90
15717;DHT22;7960;50.908;4.204;2023-04-24T00:28:07;9.30;99.90
15717;DHT22;7960;50.908;4.204;2023-04-24T00:30:34;9.30;99.90
15717;DHT22;7960;50.908;4.204;2023-04-24T00:33:01;9.30;99.90
15717;DHT22;7960;50.908;4.204;2023-04-24T00:35:28;9.40;99.90
15717;DHT22;7960;50.908;4.204;2023-04-24T00:37:55;9.40;99.90
15717;DHT22;7960;50.908;4.204;2023-04-24T00:40:22;9.40;99.90
15717;DHT22;7960;50.908;4.204;2023-04-24T00:42:49;9.40;99.90
15717;DHT22;7960;50.908;4.204;2023-04-24T00:45:18;9.40;99.90
15717;DHT22;7960;50.908;4.204;2023-04-24T00:47:45;9.40;99.90
15717;DHT22;7960;50.908;4.204;2023-04-24T00:50:14;9.40;99.90
15717;DHT22;7960;50.908;4.204;2023-04-24T00:52:41;9.40;99.90
15717;DHT22;7960;50.908;4.204;2023-04-24T00:55:09;9.40;99.90
15717;DHT22;7960;50.908;4.204;2023-04-24T00:57:36;9.30;99.90
15717;DHT22;7960;50.908;4.204;2023-04-24T01:00:04;9.30;99.90
15717;DHT22;7960;50.908;4.204;2023-04-24T01:02:38;9.30;99.90
15717;DHT22;7960;50.908;4.204;2023-04-24T01:05:09;9.30;99.90
15717;DHT22;7960;50.908;4.204;2023-04-24T01:07:38;9.20;99.90
15717;DHT22;7960;50.908;4.204;2023-04-24T01:10:06;9.20;99.90
15717;DHT22;7960;50.908;4.204;2023-04-24T01:12:33;9.10;99.90
15717;DHT22;7960;50.908;4.204;2023-04-24T01:15:00;9.20;99.90
15717;DHT22;7960;50.908;4.204;2023-04-24T01:17:28;9.20;99.90
15717;DHT22;7960;50.908;4.204;2023-04-24T01:19:56;9.10;99.90
15717;DHT22;7960;50.908;4.204;2023-04-24T01:22:25;9.10;99.90
15717;DHT22;7960;50.908;4.204;2023-04-24T01:24:52;9.20;99.90
15717;DHT22;7960;50.908;4.204;2023-04-24T01:27:19;9.10;99.90
15717;DHT22;7960;50.908;4.204;2023-04-24T01:29:47;9.00;99.90
15717;DHT22;7960;50.908;4.204;2023-04-24T01:32:15;9.00;99.90
15717;DHT22;7960;50.908;4.204;2023-04-24T01:34:43;9.00;99.90
15717;DHT22;7960;50.908;4.204;2023-04-24T01:37:10;9.00;99.90
15717;DHT22;7960;50.908;4.204;2023-04-24T01:39:38;9.00;99.90
15717;DHT22;7960;50.908;4.204;2023-04-24T01:42:06;9.00;99.90
15717;DHT22;7960;50.908;4.204;2023-04-24T01:44:33;9.00;99.90
15717;DHT22;7960;50.908;4.204;2023-04-24T01:47:01;9.00;99.90
15717;DHT22;7960;50.908;4.204;2023-04-24T01:49:28;8.90;99.90
15717;DHT22;7960;50.908;4.204;2023-04-24T01:51:55;8.90;99.90
15717;DHT22;7960;50.908;4.204;2023-04-24T01:54:22;8.90;99.90
15717;DHT22;7960;50.908;4.204;2023-04-24T01:56:50;8.90;99.90
15717;DHT22;7960;50.908;4.204;2023-04-24T01:59:17;8.90;99.90
15717;DHT22;7960;50.908;4.204;2023-04-24T02:01:45;8.90;99.90
15717;DHT22;7960;50.908;4.204;2023-04-24T02:04:12;8.90;99.90
15717;DHT22;7960;50.908;4.204;2023-04-24T02:06:40;8.90;99.90
15717;DHT22;7960;50.908;4.204;2023-04-24T02:09:07;8.90;99.90
15717;DHT22;7960;50.908;4.204;2023-04-24T02:11:34;8.90;99.90
15717;DHT22;7960;50.908;4.204;2023-04-24T02:14:02;8.90;99.90
15717;DHT22;7960;50.908;4.204;2023-04-24T02:16:29;8.90;99.90
15717;DHT22;7960;50.908;4.204;2023-04-24T02:18:57;8.90;99.90
15717;DHT22;7960;50.908;4.204;2023-04-24T02:21:24;8.90;99.90
15717;DHT22;7960;50.908;4.204;2023-04-24T02:23:52;9.00;99.90
15717;DHT22;7960;50.908;4.204;2023-04-24T02:26:20;8.90;99.90
15717;DHT22;7960;50.908;4.204;2023-04-24T02:28:46;8.90;99.90
15717;DHT22;7960;50.908;4.204;2023-04-24T02:31:15;8.90;99.90
15717;DHT22;7960;50.908;4.204;2023-04-24T02:33:42;8.90;99.90
15717;DHT22;7960;50.908;4.204;2023-04-24T02:36:09;8.80;99.90
15717;DHT22;7960;50.908;4.204;2023-04-24T02:38:36;8.80;99.90
15717;DHT22;7960;50.908;4.204;2023-04-24T02:41:03;8.80;99.90
15717;DHT22;7960;50.908;4.204;2023-04-24T02:43:31;8.80;99.90
15717;DHT22;7960;50.908;4.204;2023-04-24T02:45:59;8.80;99.90
15717;DHT22;7960;50.908;4.204;2023-04-24T02:48:28;8.70;99.90
15717;DHT22;7960;50.908;4.204;2023-04-24T02:50:55;8.80;99.90
15717;DHT22;7960;50.908;4.204;2023-04-24T02:53:23;8.70;99.90
15717;DHT22;7960;50.908;4.204;2023-04-24T02:55:50;8.70;99.90
15717;DHT22;7960;50.908;4.204;2023-04-24T02:58:17;8.60;99.90
15717;DHT22;7960;50.908;4.204;2023-04-24T03:00:45;8.60;99.90
15717;DHT22;7960;50.908;4.204;2023-04-24T03:03:12;8.70;99.90
15717;DHT22;7960;50.908;4.204;2023-04-24T03:05:42;8.70;99.90
15717;DHT22;7960;50.908;4.204;2023-04-24T03:08:09;8.60;99.90
15717;DHT22;7960;50.908;4.204;2023-04-24T03:10:36;8.60;99.90
15717;DHT22;7960;50.908;4.204;2023-04-24T03:13:03;8.60;99.90
15717;DHT22;7960;50.908;4.204;2023-04-24T03:15:30;8.60;99.90
15717;DHT22;7960;50.908;4.204;2023-04-24T03:17:57;8.60;99.90
15717;DHT22;7960;50.908;4.204;2023-04-24T03:20:24;8.50;99.90
15717;DHT22;7960;50.908;4.204;2023-04-24T03:22:52;8.60;99.90
15717;DHT22;7960;50.908;4.204;2023-04-24T03:25:20;8.60;99.90
15717;DHT22;7960;50.908;4.204;2023-04-24T03:27:46;8.60;99.90
15717;DHT22;7960;50.908;4.204;2023-04-24T03:30:14;8.50;99.90
15717;DHT22;7960;50.908;4.204;2023-04-24T03:32:40;8.50;99.90
15717;DHT22;7960;50.908;4.204;2023-04-24T03:35:08;8.50;99.90
15717;DHT22;7960;50.908;4.204;2023-04-24T03:37:35;8.50;99.90
15717;DHT22;7960;50.908;4.204;2023-04-24T03:40:04;8.50;99.90
15717;DHT22;7960;50.908;4.204;2023-04-24T03:42:31;8.50;99.90
15717;DHT22;7960;50.908;4.204;2023-04-24T03:44:58;8.60;99.90
15717;DHT22;7960;50.908;4.204;2023-04-24T03:47:25;8.70;99.90
15717;DHT22;7960;50.908;4.204;2023-04-24T03:49:52;8.60;99.90
15717;DHT22;7960;50.908;4.204;2023-04-24T03:52:19;8.60;99.90
15717;DHT22;7960;50.908;4.204;2023-04-24T03:54:46;8.60;99.90
15717;DHT22;7960;50.908;4.204;2023-04-24T03:57:15;8.60;99.90
15717;DHT22;7960;50.908;4.204;2023-04-24T03:59:42;8.60;99.90
15717;DHT22;7960;50.908;4.204;2023-04-24T04:02:08;8.70;99.90
15717;DHT22;7960;50.908;4.204;2023-04-24T04:04:35;8.60;99.90
15717;DHT22;7960;50.908;4.204;2023-04-24T04:07:02;8.70;99.90
15717;DHT22;7960;50.908;4.204;2023-04-24T04:09:30;8.70;99.90
15717;DHT22;7960;50.908;4.204;2023-04-24T04:11:58;8.70;99.90
15717;DHT22;7960;50.908;4.204;2023-04-24T04:14:27;8.70;99.90
15717;DHT22;7960;50.908;4.204;2023-04-24T04:16:54;8.70;99.90
15717;DHT22;7960;50.908;4.204;2023-04-24T04:19:21;8.60;99.90
15717;DHT22;7960;50.908;4.204;2023-04-24T04:21:48;8.60;99.90
15717;DHT22;7960;50.908;4.204;2023-04-24T04:24:18;8.60;99.90
15717;DHT22;7960;50.908;4.204;2023-04-24T04:26:46;8.60;99.90
15717;DHT22;7960;50.908;4.204;2023-04-24T04:29:13;8.50;99.90
15717;DHT22;7960;50.908;4.204;2023-04-24T04:31:42;8.60;99.90
15717;DHT22;7960;50.908;4.204;2023-04-24T04:34:09;8.60;99.90
15717;DHT22;7960;50.908;4.204;2023-04-24T04:36:37;8.50;99.90
15717;DHT22;7960;50.908;4.204;2023-04-24T04:39:05;8.50;99.90
15717;DHT22;7960;50.908;4.204;2023-04-24T04:41:32;8.50;99.90
15717;DHT22;7960;50.908;4.204;2023-04-24T04:44:00;8.50;99.90
15717;DHT22;7960;50.908;4.204;2023-04-24T04:46:30;8.50;99.90
15717;DHT22;7960;50.908;4.204;2023-04-24T04:49:01;8.50;99.90
15717;DHT22;7960;50.908;4.204;2023-04-24T04:51:28;8.50;99.90
15717;DHT22;7960;50.908;4.204;2023-04-24T04:53:55;8.50;99.90
15717;DHT22;7960;50.908;4.204;2023-04-24T04:56:22;8.50;99.90
15717;DHT22;7960;50.908;4.204;2023-04-24T04:58:49;8.40;99.90
15717;DHT22;7960;50.908;4.204;2023-04-24T05:01:16;8.40;99.90
15717;DHT22;7960;50.908;4.204;2023-04-24T05:03:44;8.40;99.90
15717;DHT22;7960;50.908;4.204;2023-04-24T05:06:12;8.40;99.90
15717;DHT22;7960;50.908;4.204;2023-04-24T05:08:39;8.40;99.90
15717;DHT22;7960;50.908;4.204;2023-04-24T05:11:06;8.50;99.90
15717;DHT22;7960;50.908;4.204;2023-04-24T05:13:33;8.40;99.90
15717;DHT22;7960;50.908;4.204;2023-04-24T05:16:00;8.30;99.90
15717;DHT22;7960;50.908;4.204;2023-04-24T05:18:27;8.30;99.90
15717;DHT22;7960;50.908;4.204;2023-04-24T05:20:54;8.40;99.90
15717;DHT22;7960;50.908;4.204;2023-04-24T05:23:23;8.40;99.90
15717;DHT22;7960;50.908;4.204;2023-04-24T05:25:50;8.30;99.90
15717;DHT22;7960;50.908;4.204;2023-04-24T05:28:17;8.30;99.90
15717;DHT22;7960;50.908;4.204;2023-04-24T05:30:44;8.30;99.90
15717;DHT22;7960;50.908;4.204;2023-04-24T05:33:11;8.30;99.90
15717;DHT22;7960;50.908;4.204;2023-04-24T05:35:40;8.30;99.90
15717;DHT22;7960;50.908;4.204;2023-04-24T05:38:11;8.30;99.90
15717;DHT22;7960;50.908;4.204;2023-04-24T05:40:39;8.30;99.90
15717;DHT22;7960;50.908;4.204;2023-04-24T05:43:06;8.20;99.90
15717;DHT22;7960;50.908;4.204;2023-04-24T05:45:33;8.30;99.90
15717;DHT22;7960;50.908;4.204;2023-04-24T05:48:01;8.20;99.90
15717;DHT22;7960;50.908;4.204;2023-04-24T05:50:28;8.30;99.90
15717;DHT22;7960;50.908;4.204;2023-04-24T05:52:55;8.20;99.90
15717;DHT22;7960;50.908;4.204;2023-04-24T05:55:23;8.20;99.90
15717;DHT22;7960;50.908;4.204;2023-04-24T05:57:52;8.20;99.90
15717;DHT22;7960;50.908;4.204;2023-04-24T06:00:19;8.20;99.90
15717;DHT22;7960;50.908;4.204;2023-04-24T06:02:46;8.20;99.90
15717;DHT22;7960;50.908;4.204;2023-04-24T06:05:13;8.10;99.90
15717;DHT22;7960;50.908;4.204;2023-04-24T06:07:40;8.20;99.90
15717;DHT22;7960;50.908;4.204;2023-04-24T06:10:08;8.20;99.90
15717;DHT22;7960;50.908;4.204;2023-04-24T06:12:35;8.20;99.90
15717;DHT22;7960;50.908;4.204;2023-04-24T06:15:05;8.20;99.90
15717;DHT22;7960;50.908;4.204;2023-04-24T06:17:32;8.20;99.90
15717;DHT22;7960;50.908;4.204;2023-04-24T06:19:59;8.20;99.90
15717;DHT22;7960;50.908;4.204;2023-04-24T06:22:26;8.20;99.90
15717;DHT22;7960;50.908;4.204;2023-04-24T06:24:53;8.20;99.90
15717;DHT22;7960;50.908;4.204;2023-04-24T06:27:21;8.20;99.90
15717;DHT22;7960;50.908;4.204;2023-04-24T06:29:47;8.10;99.90
15717;DHT22;7960;50.908;4.204;2023-04-24T06:32:21;8.20;99.90
15717;DHT22;7960;50.908;4.204;2023-04-24T06:34:48;8.30;99.90
15717;DHT22;7960;50.908;4.204;2023-04-24T06:37:15;8.20;99.90
15717;DHT22;7960;50.908;4.204;2023-04-24T06:39:43;8.30;99.90
15717;DHT22;7960;50.908;4.204;2023-04-24T06:42:10;8.30;99.90
15717;DHT22;7960;50.908;4.204;2023-04-24T06:44:37;8.40;99.90
15717;DHT22;7960;50.908;4.204;2023-04-24T06:47:06;8.30;99.90
15717;DHT22;7960;50.908;4.204;2023-04-24T06:49:36;8.40;99.90
15717;DHT22;7960;50.908;4.204;2023-04-24T06:52:03;8.30;99.90
15717;DHT22;7960;50.908;4.204;2023-04-24T06:54:30;8.50;99.90
15717;DHT22;7960;50.908;4.204;2023-04-24T06:56:57;8.40;99.90
15717;DHT22;7960;50.908;4.204;2023-04-24T06:59:26;8.40;99.90
15717;DHT22;7960;50.908;4.204;2023-04-24T07:01:53;8.50;99.90
15717;DHT22;7960;50.908;4.204;2023-04-24T07:04:20;8.50;99.90
15717;DHT22;7960;50.908;4.204;2023-04-24T07:06:49;8.60;99.90
15717;DHT22;7960;50.908;4.204;2023-04-24T07:09:16;8.60;99.90
15717;DHT22;7960;50.908;4.204;2023-04-24T07:11:44;8.60;99.90
15717;DHT22;7960;50.908;4.204;2023-04-24T07:14:11;8.80;99.90
15717;DHT22;7960;50.908;4.204;2023-04-24T07:16:38;8.90;99.90
15717;DHT22;7960;50.908;4.204;2023-04-24T07:19:05;8.90;99.90
15717;DHT22;7960;50.908;4.204;2023-04-24T07:21:32;8.90;99.90
15717;DHT22;7960;50.908;4.204;2023-04-24T07:24:01;8.90;99.90
15717;DHT22;7960;50.908;4.204;2023-04-24T07:26:29;8.90;99.90
15717;DHT22;7960;50.908;4.204;2023-04-24T07:28:56;9.00;99.90
15717;DHT22;7960;50.908;4.204;2023-04-24T07:31:23;9.00;99.90
15717;DHT22;7960;50.908;4.204;2023-04-24T07:33:50;9.00;99.90
15717;DHT22;7960;50.908;4.204;2023-04-24T07:36:17;9.00;99.90
15717;DHT22;7960;50.908;4.204;2023-04-24T07:38:45;9.00;99.90
15717;DHT22;7960;50.908;4.204;2023-04-24T07:41:13;9.00;99.90
15717;DHT22;7960;50.908;4.204;2023-04-24T07:43:41;9.00;99.90
15717;DHT22;7960;50.908;4.204;2023-04-24T07:46:08;9.00;99.90
15717;DHT22;7960;50.908;4.204;2023-04-24T07:48:35;9.10;99.90
15717;DHT22;7960;50.908;4.204;2023-04-24T07:51:02;9.10;99.90
15717;DHT22;7960;50.908;4.204;2023-04-24T07:53:29;9.20;99.90
15717;DHT22;7960;50.908;4.204;2023-04-24T07:55:56;9.20;99.90
15717;DHT22;7960;50.908;4.204;2023-04-24T07:58:25;9.10;99.90
15717;DHT22;7960;50.908;4.204;2023-04-24T08:00:52;9.10;99.90
15717;DHT22;7960;50.908;4.204;2023-04-24T08:03:19;9.10;99.90
15717;DHT22;7960;50.908;4.204;2023-04-24T08:05:46;9.20;99.90
15717;DHT22;7960;50.908;4.204;2023-04-24T08:08:13;9.20;99.90
15717;DHT22;7960;50.908;4.204;2023-04-24T08:10:40;9.20;99.90
15717;DHT22;7960;50.908;4.204;2023-04-24T08:13:07;9.30;99.90
15717;DHT22;7960;50.908;4.204;2023-04-24T08:15:35;9.30;99.90
15717;DHT22;7960;50.908;4.204;2023-04-24T08:18:02;9.40;99.90
15717;DHT22;7960;50.908;4.204;2023-04-24T08:20:29;9.50;99.90
15717;DHT22;7960;50.908;4.204;2023-04-24T08:22:56;9.50;99.90
15717;DHT22;7960;50.908;4.204;2023-04-24T08:25:23;9.50;99.90
15717;DHT22;7960;50.908;4.204;2023-04-24T08:27:50;9.50;99.90
15717;DHT22;7960;50.908;4.204;2023-04-24T08:30:18;9.40;99.90
15717;DHT22;7960;50.908;4.204;2023-04-24T08:32:47;9.40;99.90
15717;DHT22;7960;50.908;4.204;2023-04-24T08:35:14;9.40;99.90
15717;DHT22;7960;50.908;4.204;2023-04-24T08:37:41;9.50;99.90
15717;DHT22;7960;50.908;4.204;2023-04-24T08:40:12;9.50;99.90
15717;DHT22;7960;50.908;4.204;2023-04-24T08:42:41;9.70;99.90
15717;DHT22;7960;50.908;4.204;2023-04-24T08:45:10;9.90;99.90
15717;DHT22;7960;50.908;4.204;2023-04-24T08:47:38;10.00;99.90
15717;DHT22;7960;50.908;4.204;2023-04-24T08:50:08;10.10;99.90
15717;DHT22;7960;50.908;4.204;2023-04-24T08:52:36;10.20;99.90
15717;DHT22;7960;50.908;4.204;2023-04-24T08:55:04;10.30;99.90
15717;DHT22;7960;50.908;4.204;2023-04-24T08:57:32;10.50;99.90
15717;DHT22;7960;50.908;4.204;2023-04-24T09:00:02;10.50;99.90
15717;DHT22;7960;50.908;4.204;2023-04-24T09:02:30;10.50;99.90
15717;DHT22;7960;50.908;4.204;2023-04-24T09:05:00;10.50;99.90
15717;DHT22;7960;50.908;4.204;2023-04-24T09:07:30;10.50;99.90
15717;DHT22;7960;50.908;4.204;2023-04-24T09:09:59;10.70;99.90
15717;DHT22;7960;50.908;4.204;2023-04-24T09:12:27;10.90;99.90
15717;DHT22;7960;50.908;4.204;2023-04-24T09:14:55;10.80;99.90
15717;DHT22;7960;50.908;4.204;2023-04-24T09:17:24;10.80;99.90
15717;DHT22;7960;50.908;4.204;2023-04-24T09:19:52;10.80;99.90
15717;DHT22;7960;50.908;4.204;2023-04-24T09:22:20;10.60;99.90
15717;DHT22;7960;50.908;4.204;2023-04-24T09:25:00;10.50;99.90
15717;DHT22;7960;50.908;4.204;2023-04-24T09:27:28;10.40;99.90
15717;DHT22;7960;50.908;4.204;2023-04-24T09:29:56;10.40;99.90
15717;DHT22;7960;50.908;4.204;2023-04-24T09:32:23;10.60;99.90
15717;DHT22;7960;50.908;4.204;2023-04-24T09:35:05;10.70;99.90
15717;DHT22;7960;50.908;4.204;2023-04-24T09:37:36;10.70;99.90
15717;DHT22;7960;50.908;4.204;2023-04-24T09:40:15;10.70;99.90
15717;DHT22;7960;50.908;4.204;2023-04-24T09:42:46;11.00;99.90
15717;DHT22;7960;50.908;4.204;2023-04-24T09:45:18;11.20;99.90
15717;DHT22;7960;50.908;4.204;2023-04-24T09:47:45;11.30;99.90
15717;DHT22;7960;50.908;4.204;2023-04-24T09:50:13;11.10;99.90
15717;DHT22;7960;50.908;4.204;2023-04-24T09:52:42;11.10;99.90
15717;DHT22;7960;50.908;4.204;2023-04-24T09:55:19;11.00;99.90
15717;DHT22;7960;50.908;4.204;2023-04-24T09:57:50;11.00;99.90
15717;DHT22;7960;50.908;4.204;2023-04-24T10:00:22;11.10;99.90
15717;DHT22;7960;50.908;4.204;2023-04-24T10:02:51;11.30;99.90
15717;DHT22;7960;50.908;4.204;2023-04-24T10:05:19;11.30;99.90
15717;DHT22;7960;50.908;4.204;2023-04-24T10:07:49;11.40;99.90
15717;DHT22;7960;50.908;4.204;2023-04-24T10:10:18;11.40;99.90
15717;DHT22;7960;50.908;4.204;2023-04-24T10:12:45;11.50;99.90
15717;DHT22;7960;50.908;4.204;2023-04-24T10:15:13;11.40;99.90
15717;DHT22;7960;50.908;4.204;2023-04-24T10:17:41;11.30;99.90
15717;DHT22;7960;50.908;4.204;2023-04-24T10:20:09;11.90;99.90
15717;DHT22;7960;50.908;4.204;2023-04-24T10:22:36;12.10;99.90
15717;DHT22;7960;50.908;4.204;2023-04-24T10:25:05;12.10;99.90
15717;DHT22;7960;50.908;4.204;2023-04-24T10:27:34;11.90;99.90
15717;DHT22;7960;50.908;4.204;2023-04-24T10:30:03;11.60;99.90
15717;DHT22;7960;50.908;4.204;2023-04-24T10:32:30;11.50;99.90
15717;DHT22;7960;50.908;4.204;2023-04-24T10:34:57;11.30;99.90
15717;DHT22;7960;50.908;4.204;2023-04-24T10:37:25;11.50;99.90
15717;DHT22;7960;50.908;4.204;2023-04-24T10:39:52;11.50;99.90
15717;DHT22;7960;50.908;4.204;2023-04-24T10:42:20;11.70;99.90
15717;DHT22;7960;50.908;4.204;2023-04-24T10:44:50;11.80;99.90
15717;DHT22;7960;50.908;4.204;2023-04-24T10:47:17;12.00;99.90
15717;DHT22;7960;50.908;4.204;2023-04-24T10:49:44;11.90;99.90
15717;DHT22;7960;50.908;4.204;2023-04-24T10:52:11;11.80;99.90
15717;DHT22;7960;50.908;4.204;2023-04-24T10:54:42;11.60;99.90
15717;DHT22;7960;50.908;4.204;2023-04-24T10:57:27;11.60;99.90
15717;DHT22;7960;50.908;4.204;2023-04-24T11:00:14;11.40;99.90
15717;DHT22;7960;50.908;4.204;2023-04-24T11:02:41;11.50;99.90
15717;DHT22;7960;50.908;4.204;2023-04-24T11:05:15;11.60;99.90
15717;DHT22;7960;50.908;4.204;2023-04-24T11:08:11;11.60;99.90
15717;DHT22;7960;50.908;4.204;2023-04-24T11:10:40;11.60;99.90
15717;DHT22;7960;50.908;4.204;2023-04-24T11:13:08;11.40;99.90
15717;DHT22;7960;50.908;4.204;2023-04-24T11:15:36;11.50;99.90
15717;DHT22;7960;50.908;4.204;2023-04-24T11:18:04;11.60;99.90
15717;DHT22;7960;50.908;4.204;2023-04-24T11:20:31;11.80;99.90
15717;DHT22;7960;50.908;4.204;2023-04-24T11:23:03;11.90;99.90
15717;DHT22;7960;50.908;4.204;2023-04-24T11:25:32;11.80;99.90
15717;DHT22;7960;50.908;4.204;2023-04-24T11:28:05;11.80;99.90
15717;DHT22;7960;50.908;4.204;2023-04-24T11:30:33;11.80;99.90
15717;DHT22;7960;50.908;4.204;2023-04-24T11:33:05;11.80;99.90
15717;DHT22;7960;50.908;4.204;2023-04-24T11:35:36;12.30;99.90
15717;DHT22;7960;50.908;4.204;2023-04-24T11:38:06;12.90;99.90
15717;DHT22;7960;50.908;4.204;2023-04-24T11:40:34;13.00;99.90
15717;DHT22;7960;50.908;4.204;2023-04-24T11:43:01;12.70;99.80
15717;DHT22;7960;50.908;4.204;2023-04-24T11:45:30;12.50;99.90
15717;DHT22;7960;50.908;4.204;2023-04-24T11:47:57;12.40;99.90
15717;DHT22;7960;50.908;4.204;2023-04-24T11:50:26;12.30;99.90
15717;DHT22;7960;50.908;4.204;2023-04-24T11:52:56;12.30;99.90
15717;DHT22;7960;50.908;4.204;2023-04-24T11:55:24;12.40;99.90
15717;DHT22;7960;50.908;4.204;2023-04-24T11:57:54;12.40;99.90
15717;DHT22;7960;50.908;4.204;2023-04-24T12:00:25;12.60;99.90
15717;DHT22;7960;50.908;4.204;2023-04-24T12:03:03;12.40;99.90
15717;DHT22;7960;50.908;4.204;2023-04-24T12:05:32;12.50;99.90
15717;DHT22;7960;50.908;4.204;2023-04-24T12:08:00;12.40;99.90
15717;DHT22;7960;50.908;4.204;2023-04-24T12:10:29;12.70;99.90
15717;DHT22;7960;50.908;4.204;2023-04-24T12:12:57;12.90;99.60
15717;DHT22;7960;50.908;4.204;2023-04-24T12:15:25;12.60;98.90
15717;DHT22;7960;50.908;4.204;2023-04-24T12:17:54;12.30;99.10
15717;DHT22;7960;50.908;4.204;2023-04-24T12:20:24;12.40;99.30
15717;DHT22;7960;50.908;4.204;2023-04-24T12:22:54;12.80;99.70
15717;DHT22;7960;50.908;4.204;2023-04-24T12:25:22;12.80;99.40
15717;DHT22;7960;50.908;4.204;2023-04-24T12:27:54;13.30;99.40
15717;DHT22;7960;50.908;4.204;2023-04-24T12:30:26;13.70;98.90
15717;DHT22;7960;50.908;4.204;2023-04-24T12:32:53;13.50;97.50
15717;DHT22;7960;50.908;4.204;2023-04-24T12:35:21;13.20;97.90
15717;DHT22;7960;50.908;4.204;2023-04-24T12:37:49;13.50;98.10
15717;DHT22;7960;50.908;4.204;2023-04-24T12:40:19;13.40;98.00
15717;DHT22;7960;50.908;4.204;2023-04-24T12:42:48;13.20;97.50
15717;DHT22;7960;50.908;4.204;2023-04-24T12:45:17;13.10;97.10
15717;DHT22;7960;50.908;4.204;2023-04-24T12:47:45;13.20;97.00
15717;DHT22;7960;50.908;4.204;2023-04-24T12:50:13;13.20;97.30
15717;DHT22;7960;50.908;4.204;2023-04-24T12:52:41;13.40;97.30
15717;DHT22;7960;50.908;4.204;2023-04-24T12:55:09;14.10;97.00
15717;DHT22;7960;50.908;4.204;2023-04-24T12:57:39;14.40;96.40
15717;DHT22;7960;50.908;4.204;2023-04-24T13:00:08;14.70;96.00
15717;DHT22;7960;50.908;4.204;2023-04-24T13:02:35;14.70;95.40
15717;DHT22;7960;50.908;4.204;2023-04-24T13:05:03;14.70;95.20
15717;DHT22;7960;50.908;4.204;2023-04-24T13:07:30;14.20;94.50
15717;DHT22;7960;50.908;4.204;2023-04-24T13:09:57;13.80;94.60
15717;DHT22;7960;50.908;4.204;2023-04-24T13:12:24;13.90;95.00
15717;DHT22;7960;50.908;4.204;2023-04-24T13:14:53;13.50;94.60
15717;DHT22;7960;50.908;4.204;2023-04-24T13:17:21;13.60;94.80
15717;DHT22;7960;50.908;4.204;2023-04-24T13:19:50;14.60;94.80
15717;DHT22;7960;50.908;4.204;2023-04-24T13:22:18;14.50;93.70
15717;DHT22;7960;50.908;4.204;2023-04-24T13:24:45;14.90;93.30
15717;DHT22;7960;50.908;4.204;2023-04-24T13:27:14;15.10;92.60
15717;DHT22;7960;50.908;4.204;2023-04-24T13:29:41;16.00;92.60
15717;DHT22;7960;50.908;4.204;2023-04-24T13:32:10;16.30;91.80
15717;DHT22;7960;50.908;4.204;2023-04-24T13:34:37;16.10;90.80
15717;DHT22;7960;50.908;4.204;2023-04-24T13:37:05;15.50;89.10
15717;DHT22;7960;50.908;4.204;2023-04-24T13:39:33;14.90;90.20
15717;DHT22;7960;50.908;4.204;2023-04-24T13:42:00;14.60;90.00
15717;DHT22;7960;50.908;4.204;2023-04-24T13:44:27;14.60;90.10
15717;DHT22;7960;50.908;4.204;2023-04-24T13:46:55;15.00;88.50
15717;DHT22;7960;50.908;4.204;2023-04-24T13:49:25;15.00;87.00
15717;DHT22;7960;50.908;4.204;2023-04-24T13:51:52;15.10;88.00
15717;DHT22;7960;50.908;4.204;2023-04-24T13:54:20;14.90;87.20
15717;DHT22;7960;50.908;4.204;2023-04-24T13:56:48;15.00;89.50
15717;DHT22;7960;50.908;4.204;2023-04-24T13:59:15;14.70;90.40
15717;DHT22;7960;50.908;4.204;2023-04-24T14:01:42;14.50;91.30
15717;DHT22;7960;50.908;4.204;2023-04-24T14:04:10;14.50;91.70
15717;DHT22;7960;50.908;4.204;2023-04-24T14:06:39;14.40;91.40
15717;DHT22;7960;50.908;4.204;2023-04-24T14:09:06;14.20;91.50
15717;DHT22;7960;50.908;4.204;2023-04-24T14:11:33;14.10;91.50
15717;DHT22;7960;50.908;4.204;2023-04-24T14:14:01;14.00;91.80
15717;DHT22;7960;50.908;4.204;2023-04-24T14:16:28;14.30;91.80
15717;DHT22;7960;50.908;4.204;2023-04-24T14:18:56;14.70;91.80
15717;DHT22;7960;50.908;4.204;2023-04-24T14:21:23;15.30;91.40
15717;DHT22;7960;50.908;4.204;2023-04-24T14:23:51;15.90;90.80
15717;DHT22;7960;50.908;4.204;2023-04-24T14:26:19;15.80;90.00
15717;DHT22;7960;50.908;4.204;2023-04-24T14:28:46;15.30;88.90
15717;DHT22;7960;50.908;4.204;2023-04-24T14:31:12;14.90;88.70
15717;DHT22;7960;50.908;4.204;2023-04-24T14:33:40;15.10;89.80
15717;DHT22;7960;50.908;4.204;2023-04-24T14:36:07;15.50;90.20
15717;DHT22;7960;50.908;4.204;2023-04-24T14:38:34;16.00;89.20
15717;DHT22;7960;50.908;4.204;2023-04-24T14:41:03;16.80;88.40
15717;DHT22;7960;50.908;4.204;2023-04-24T14:43:35;16.70;83.60
15717;DHT22;7960;50.908;4.204;2023-04-24T14:46:03;16.10;82.50
15717;DHT22;7960;50.908;4.204;2023-04-24T14:48:30;15.70;83.20
15717;DHT22;7960;50.908;4.204;2023-04-24T14:50:57;15.50;83.90
15717;DHT22;7960;50.908;4.204;2023-04-24T14:53:24;15.10;82.70
15717;DHT22;7960;50.908;4.204;2023-04-24T14:55:51;14.80;83.80
15717;DHT22;7960;50.908;4.204;2023-04-24T14:58:19;14.70;85.00
15717;DHT22;7960;50.908;4.204;2023-04-24T15:00:46;14.70;86.60
15717;DHT22;7960;50.908;4.204;2023-04-24T15:03:15;14.40;87.30
15717;DHT22;7960;50.908;4.204;2023-04-24T15:05:42;14.20;88.50
15717;DHT22;7960;50.908;4.204;2023-04-24T15:08:09;14.00;89.70
15717;DHT22;7960;50.908;4.204;2023-04-24T15:10:36;13.90;89.10
15717;DHT22;7960;50.908;4.204;2023-04-24T15:13:03;14.00;89.60
15717;DHT22;7960;50.908;4.204;2023-04-24T15:15:32;13.90;89.60
15717;DHT22;7960;50.908;4.204;2023-04-24T15:18:00;14.00;90.20
15717;DHT22;7960;50.908;4.204;2023-04-24T15:20:27;14.20;90.00
15717;DHT22;7960;50.908;4.204;2023-04-24T15:22:53;14.30;89.40
15717;DHT22;7960;50.908;4.204;2023-04-24T15:25:21;14.30;88.70
15717;DHT22;7960;50.908;4.204;2023-04-24T15:27:48;14.00;87.20
15717;DHT22;7960;50.908;4.204;2023-04-24T15:30:15;13.80;87.90
15717;DHT22;7960;50.908;4.204;2023-04-24T15:32:43;13.80;89.30
15717;DHT22;7960;50.908;4.204;2023-04-24T15:35:11;13.80;90.30
15717;DHT22;7960;50.908;4.204;2023-04-24T15:37:38;13.90;90.10
15717;DHT22;7960;50.908;4.204;2023-04-24T15:40:07;13.90;90.10
15717;DHT22;7960;50.908;4.204;2023-04-24T15:42:34;13.70;90.40
15717;DHT22;7960;50.908;4.204;2023-04-24T15:45:01;13.60;90.20
15717;DHT22;7960;50.908;4.204;2023-04-24T15:47:29;13.50;90.70
15717;DHT22;7960;50.908;4.204;2023-04-24T15:49:57;13.60;91.20
15717;DHT22;7960;50.908;4.204;2023-04-24T15:52:24;13.70;91.40
15717;DHT22;7960;50.908;4.204;2023-04-24T15:54:51;13.60;91.40
15717;DHT22;7960;50.908;4.204;2023-04-24T15:57:18;13.60;91.80
15717;DHT22;7960;50.908;4.204;2023-04-24T15:59:45;13.60;91.80